sensor_id;sensor_type;location;lat;lon;timestamp;P1;durP1;ratioP1;P2;durP2;ratioP2
70850;SDS011;58475;49.662;9.636;2023-03-01T00:00:41;18.48;;;9.80;;
70850;SDS011;58475;49.662;9.636;2023-03-01T00:03:06;20.33;;;11.00;;
70850;SDS011;58475;49.662;9.636;2023-03-01T00:05:32;21.75;;;10.60;;
70850;SDS011;58475;49.662;9.636;2023-03-01T00:07:57;21.60;;;9.80;;
70850;SDS011;58475;49.662;9.636;2023-03-01T00:10:23;21.38;;;10.50;;
70850;SDS011;58475;49.662;9.636;2023-03-01T00:12:49;20.63;;;10.57;;
70850;SDS011;58475;49.662;9.636;2023-03-01T00:15:14;18.50;;;10.32;;
70850;SDS011;58475;49.662;9.636;2023-03-01T00:17:40;20.90;;;10.52;;
70850;SDS011;58475;49.662;9.636;2023-03-01T00:20:05;23.10;;;10.90;;
70850;SDS011;58475;49.662;9.636;2023-03-01T00:22:35;21.63;;;10.13;;
70850;SDS011;58475;49.662;9.636;2023-03-01T00:25:01;20.50;;;10.43;;
70850;SDS011;58475;49.662;9.636;2023-03-01T00:27:27;19.00;;;9.80;;
70850;SDS011;58475;49.662;9.636;2023-03-01T00:29:52;19.25;;;9.95;;
70850;SDS011;58475;49.662;9.636;2023-03-01T00:32:17;20.27;;;10.63;;
70850;SDS011;58475;49.662;9.636;2023-03-01T00:34:43;19.63;;;10.50;;
70850;SDS011;58475;49.662;9.636;2023-03-01T00:37:19;20.73;;;10.27;;
70850;SDS011;58475;49.662;9.636;2023-03-01T00:39:48;18.63;;;9.95;;
70850;SDS011;58475;49.662;9.636;2023-03-01T00:42:14;19.05;;;10.30;;
70850;SDS011;58475;49.662;9.636;2023-03-01T00:44:41;19.85;;;10.48;;
70850;SDS011;58475;49.662;9.636;2023-03-01T00:47:06;18.02;;;9.75;;
70850;SDS011;58475;49.662;9.636;2023-03-01T00:49:32;18.02;;;10.25;;
70850;SDS011;58475;49.662;9.636;2023-03-01T00:51:57;20.60;;;11.10;;
70850;SDS011;58475;49.662;9.636;2023-03-01T00:54:23;17.65;;;9.57;;
70850;SDS011;58475;49.662;9.636;2023-03-01T00:56:48;19.60;;;9.90;;
70850;SDS011;58475;49.662;9.636;2023-03-01T00:59:14;20.30;;;10.05;;
70850;SDS011;58475;49.662;9.636;2023-03-01T01:01:39;21.92;;;10.25;;
70850;SDS011;58475;49.662;9.636;2023-03-01T01:04:10;23.65;;;10.55;;
70850;SDS011;58475;49.662;9.636;2023-03-01T01:06:38;23.38;;;10.18;;
70850;SDS011;58475;49.662;9.636;2023-03-01T01:09:07;17.38;;;10.15;;
70850;SDS011;58475;49.662;9.636;2023-03-01T01:11:34;27.15;;;11.25;;
70850;SDS011;58475;49.662;9.636;2023-03-01T01:14:01;20.17;;;10.55;;
70850;SDS011;58475;49.662;9.636;2023-03-01T01:16:28;18.33;;;10.00;;
70850;SDS011;58475;49.662;9.636;2023-03-01T01:18:55;21.42;;;11.05;;
70850;SDS011;58475;49.662;9.636;2023-03-01T01:21:22;21.73;;;10.75;;
70850;SDS011;58475;49.662;9.636;2023-03-01T01:23:49;19.67;;;10.82;;
70850;SDS011;58475;49.662;9.636;2023-03-01T01:26:16;20.52;;;10.75;;
70850;SDS011;58475;49.662;9.636;2023-03-01T01:28:44;20.92;;;10.65;;
70850;SDS011;58475;49.662;9.636;2023-03-01T01:31:09;18.80;;;9.82;;
70850;SDS011;58475;49.662;9.636;2023-03-01T01:33:35;20.30;;;10.23;;
70850;SDS011;58475;49.662;9.636;2023-03-01T01:36:02;20.30;;;10.68;;
70850;SDS011;58475;49.662;9.636;2023-03-01T01:38:28;21.40;;;10.00;;
70850;SDS011;58475;49.662;9.636;2023-03-01T01:40:54;24.52;;;10.02;;
70850;SDS011;58475;49.662;9.636;2023-03-01T01:43:21;20.58;;;10.10;;
70850;SDS011;58475;49.662;9.636;2023-03-01T01:46:04;20.58;;;10.23;;
70850;SDS011;58475;49.662;9.636;2023-03-01T01:48:52;21.48;;;10.93;;
70850;SDS011;58475;49.662;9.636;2023-03-01T01:51:23;23.20;;;10.20;;
70850;SDS011;58475;49.662;9.636;2023-03-01T01:53:54;23.23;;;10.68;;
70850;SDS011;58475;49.662;9.636;2023-03-01T01:56:24;19.33;;;10.25;;
70850;SDS011;58475;49.662;9.636;2023-03-01T01:58:53;15.82;;;9.40;;
70850;SDS011;58475;49.662;9.636;2023-03-01T02:01:19;19.45;;;10.30;;
70850;SDS011;58475;49.662;9.636;2023-03-01T02:03:45;19.17;;;10.82;;
70850;SDS011;58475;49.662;9.636;2023-03-01T02:06:12;20.85;;;10.70;;
70850;SDS011;58475;49.662;9.636;2023-03-01T02:08:43;19.80;;;10.30;;
70850;SDS011;58475;49.662;9.636;2023-03-01T02:11:10;21.35;;;10.63;;
70850;SDS011;58475;49.662;9.636;2023-03-01T02:13:39;18.80;;;9.90;;
70850;SDS011;58475;49.662;9.636;2023-03-01T02:16:10;22.20;;;10.88;;
70850;SDS011;58475;49.662;9.636;2023-03-01T02:18:38;20.15;;;10.52;;
70850;SDS011;58475;49.662;9.636;2023-03-01T02:21:22;20.10;;;10.48;;
70850;SDS011;58475;49.662;9.636;2023-03-01T02:23:50;19.27;;;10.85;;
70850;SDS011;58475;49.662;9.636;2023-03-01T02:26:20;21.40;;;11.07;;
70850;SDS011;58475;49.662;9.636;2023-03-01T02:28:58;18.77;;;10.25;;
70850;SDS011;58475;49.662;9.636;2023-03-01T02:31:23;18.27;;;10.00;;
70850;SDS011;58475;49.662;9.636;2023-03-01T02:34:17;20.98;;;11.05;;
70850;SDS011;58475;49.662;9.636;2023-03-01T02:36:48;19.27;;;10.23;;
70850;SDS011;58475;49.662;9.636;2023-03-01T02:39:19;20.65;;;11.00;;
70850;SDS011;58475;49.662;9.636;2023-03-01T02:41:51;20.75;;;10.23;;
70850;SDS011;58475;49.662;9.636;2023-03-01T02:44:18;23.05;;;11.32;;
70850;SDS011;58475;49.662;9.636;2023-03-01T02:46:46;20.88;;;11.43;;
70850;SDS011;58475;49.662;9.636;2023-03-01T02:49:26;20.65;;;10.70;;
70850;SDS011;58475;49.662;9.636;2023-03-01T02:55:09;18.30;;;10.25;;
70850;SDS011;58475;49.662;9.636;2023-03-01T02:57:39;23.38;;;11.05;;
70850;SDS011;58475;49.662;9.636;2023-03-01T03:00:11;18.30;;;10.48;;
70850;SDS011;58475;49.662;9.636;2023-03-01T03:02:45;24.17;;;10.55;;
70850;SDS011;58475;49.662;9.636;2023-03-01T03:05:20;21.45;;;10.40;;
70850;SDS011;58475;49.662;9.636;2023-03-01T03:07:51;20.52;;;10.40;;
70850;SDS011;58475;49.662;9.636;2023-03-01T03:12:51;19.65;;;10.93;;
70850;SDS011;58475;49.662;9.636;2023-03-01T03:15:18;20.30;;;10.63;;
70850;SDS011;58475;49.662;9.636;2023-03-01T03:17:45;20.33;;;10.13;;
70850;SDS011;58475;49.662;9.636;2023-03-01T03:20:12;25.90;;;11.32;;
70850;SDS011;58475;49.662;9.636;2023-03-01T03:22:44;22.83;;;11.45;;
70850;SDS011;58475;49.662;9.636;2023-03-01T03:25:10;21.55;;;10.98;;
70850;SDS011;58475;49.662;9.636;2023-03-01T03:27:46;19.98;;;10.32;;
70850;SDS011;58475;49.662;9.636;2023-03-01T03:30:13;17.35;;;9.93;;
70850;SDS011;58475;49.662;9.636;2023-03-01T03:32:42;21.25;;;10.95;;
70850;SDS011;58475;49.662;9.636;2023-03-01T03:35:17;18.55;;;10.45;;
70850;SDS011;58475;49.662;9.636;2023-03-01T03:37:55;20.75;;;10.52;;
70850;SDS011;58475;49.662;9.636;2023-03-01T03:43:07;22.15;;;10.95;;
70850;SDS011;58475;49.662;9.636;2023-03-01T03:45:35;19.50;;;9.88;;
70850;SDS011;58475;49.662;9.636;2023-03-01T03:48:01;21.00;;;11.35;;
70850;SDS011;58475;49.662;9.636;2023-03-01T03:50:29;21.48;;;10.98;;
70850;SDS011;58475;49.662;9.636;2023-03-01T03:52:54;21.02;;;10.98;;
70850;SDS011;58475;49.662;9.636;2023-03-01T03:55:20;22.92;;;11.20;;
70850;SDS011;58475;49.662;9.636;2023-03-01T03:57:48;17.10;;;10.00;;
70850;SDS011;58475;49.662;9.636;2023-03-01T04:00:17;19.83;;;10.63;;
70850;SDS011;58475;49.662;9.636;2023-03-01T04:02:45;22.85;;;11.23;;
70850;SDS011;58475;49.662;9.636;2023-03-01T04:05:12;22.02;;;10.73;;
70850;SDS011;58475;49.662;9.636;2023-03-01T04:07:40;23.70;;;11.93;;
70850;SDS011;58475;49.662;9.636;2023-03-01T04:10:09;20.45;;;11.18;;
70850;SDS011;58475;49.662;9.636;2023-03-01T04:12:36;22.15;;;11.30;;
70850;SDS011;58475;49.662;9.636;2023-03-01T04:15:05;20.67;;;10.70;;
70850;SDS011;58475;49.662;9.636;2023-03-01T04:17:42;19.23;;;10.95;;
70850;SDS011;58475;49.662;9.636;2023-03-01T04:20:09;21.63;;;11.57;;
70850;SDS011;58475;49.662;9.636;2023-03-01T04:22:39;18.93;;;10.47;;
70850;SDS011;58475;49.662;9.636;2023-03-01T04:25:05;21.27;;;10.85;;
70850;SDS011;58475;49.662;9.636;2023-03-01T04:27:34;22.45;;;10.50;;
70850;SDS011;58475;49.662;9.636;2023-03-01T04:30:00;22.48;;;11.23;;
70850;SDS011;58475;49.662;9.636;2023-03-01T04:32:25;26.02;;;11.63;;
70850;SDS011;58475;49.662;9.636;2023-03-01T04:34:51;19.17;;;10.80;;
70850;SDS011;58475;49.662;9.636;2023-03-01T04:37:16;20.73;;;11.00;;
70850;SDS011;58475;49.662;9.636;2023-03-01T04:39:41;21.02;;;11.05;;
70850;SDS011;58475;49.662;9.636;2023-03-01T04:42:16;20.73;;;10.60;;
70850;SDS011;58475;49.662;9.636;2023-03-01T04:44:43;21.17;;;11.30;;
70850;SDS011;58475;49.662;9.636;2023-03-01T04:47:09;20.80;;;11.13;;
70850;SDS011;58475;49.662;9.636;2023-03-01T04:49:35;21.30;;;10.68;;
70850;SDS011;58475;49.662;9.636;2023-03-01T04:52:00;20.33;;;10.75;;
70850;SDS011;58475;49.662;9.636;2023-03-01T04:54:29;23.10;;;11.93;;
70850;SDS011;58475;49.662;9.636;2023-03-01T04:56:58;26.98;;;11.85;;
70850;SDS011;58475;49.662;9.636;2023-03-01T04:59:24;22.90;;;12.27;;
70850;SDS011;58475;49.662;9.636;2023-03-01T05:01:51;21.42;;;11.63;;
70850;SDS011;58475;49.662;9.636;2023-03-01T05:04:17;21.60;;;11.75;;
70850;SDS011;58475;49.662;9.636;2023-03-01T05:06:42;23.25;;;11.63;;
70850;SDS011;58475;49.662;9.636;2023-03-01T05:09:08;24.02;;;13.07;;
70850;SDS011;58475;49.662;9.636;2023-03-01T05:11:34;22.75;;;13.15;;
70850;SDS011;58475;49.662;9.636;2023-03-01T05:14:04;25.95;;;13.55;;
70850;SDS011;58475;49.662;9.636;2023-03-01T05:16:31;22.70;;;12.57;;
70850;SDS011;58475;49.662;9.636;2023-03-01T05:18:58;23.67;;;12.40;;
70850;SDS011;58475;49.662;9.636;2023-03-01T05:21:24;21.15;;;11.85;;
70850;SDS011;58475;49.662;9.636;2023-03-01T05:23:50;24.25;;;11.43;;
70850;SDS011;58475;49.662;9.636;2023-03-01T05:26:16;21.42;;;11.75;;
70850;SDS011;58475;49.662;9.636;2023-03-01T05:28:43;25.02;;;11.02;;
70850;SDS011;58475;49.662;9.636;2023-03-01T05:31:09;24.00;;;12.45;;
70850;SDS011;58475;49.662;9.636;2023-03-01T05:33:35;23.42;;;11.45;;
70850;SDS011;58475;49.662;9.636;2023-03-01T05:36:02;23.58;;;12.00;;
70850;SDS011;58475;49.662;9.636;2023-03-01T05:38:28;22.05;;;11.70;;
70850;SDS011;58475;49.662;9.636;2023-03-01T05:40:53;21.95;;;11.30;;
70850;SDS011;58475;49.662;9.636;2023-03-01T05:43:19;20.00;;;11.05;;
70850;SDS011;58475;49.662;9.636;2023-03-01T05:45:44;21.65;;;11.45;;
70850;SDS011;58475;49.662;9.636;2023-03-01T05:48:10;24.30;;;11.40;;
70850;SDS011;58475;49.662;9.636;2023-03-01T05:50:37;23.90;;;11.80;;
70850;SDS011;58475;49.662;9.636;2023-03-01T05:53:11;24.05;;;12.15;;
70850;SDS011;58475;49.662;9.636;2023-03-01T05:55:39;20.02;;;10.43;;
70850;SDS011;58475;49.662;9.636;2023-03-01T05:58:09;22.95;;;11.57;;
70850;SDS011;58475;49.662;9.636;2023-03-01T06:00:36;19.60;;;10.95;;
70850;SDS011;58475;49.662;9.636;2023-03-01T06:03:02;20.42;;;9.95;;
70850;SDS011;58475;49.662;9.636;2023-03-01T06:05:28;24.25;;;11.23;;
70850;SDS011;58475;49.662;9.636;2023-03-01T06:07:54;23.10;;;11.13;;
70850;SDS011;58475;49.662;9.636;2023-03-01T06:10:23;21.25;;;11.40;;
70850;SDS011;58475;49.662;9.636;2023-03-01T06:12:48;20.95;;;11.00;;
70850;SDS011;58475;49.662;9.636;2023-03-01T06:15:15;22.52;;;10.57;;
70850;SDS011;58475;49.662;9.636;2023-03-01T06:17:42;25.70;;;12.35;;
70850;SDS011;58475;49.662;9.636;2023-03-01T06:20:11;19.15;;;11.15;;
70850;SDS011;58475;49.662;9.636;2023-03-01T06:22:37;22.75;;;11.68;;
70850;SDS011;58475;49.662;9.636;2023-03-01T06:25:03;22.60;;;10.88;;
70850;SDS011;58475;49.662;9.636;2023-03-01T06:27:29;21.50;;;11.40;;
70850;SDS011;58475;49.662;9.636;2023-03-01T06:29:55;23.95;;;11.95;;
70850;SDS011;58475;49.662;9.636;2023-03-01T06:32:20;21.88;;;10.73;;
70850;SDS011;58475;49.662;9.636;2023-03-01T06:34:46;22.23;;;10.95;;
70850;SDS011;58475;49.662;9.636;2023-03-01T06:37:11;20.08;;;10.90;;
70850;SDS011;58475;49.662;9.636;2023-03-01T06:39:37;21.20;;;10.75;;
70850;SDS011;58475;49.662;9.636;2023-03-01T06:42:02;24.05;;;11.10;;
70850;SDS011;58475;49.662;9.636;2023-03-01T06:44:28;22.83;;;10.57;;
70850;SDS011;58475;49.662;9.636;2023-03-01T06:46:53;20.98;;;10.77;;
70850;SDS011;58475;49.662;9.636;2023-03-01T06:49:19;20.30;;;10.70;;
70850;SDS011;58475;49.662;9.636;2023-03-01T06:51:46;23.40;;;11.45;;
70850;SDS011;58475;49.662;9.636;2023-03-01T06:54:11;21.85;;;11.57;;
70850;SDS011;58475;49.662;9.636;2023-03-01T06:56:37;24.27;;;11.60;;
70850;SDS011;58475;49.662;9.636;2023-03-01T06:59:03;23.88;;;11.15;;
70850;SDS011;58475;49.662;9.636;2023-03-01T07:01:29;26.02;;;11.40;;
70850;SDS011;58475;49.662;9.636;2023-03-01T07:03:55;36.25;;;11.88;;
70850;SDS011;58475;49.662;9.636;2023-03-01T07:06:21;25.15;;;11.57;;
70850;SDS011;58475;49.662;9.636;2023-03-01T07:08:47;23.13;;;11.35;;
70850;SDS011;58475;49.662;9.636;2023-03-01T07:11:12;23.63;;;11.13;;
70850;SDS011;58475;49.662;9.636;2023-03-01T07:13:38;20.58;;;10.82;;
70850;SDS011;58475;49.662;9.636;2023-03-01T07:16:03;24.17;;;11.45;;
70850;SDS011;58475;49.662;9.636;2023-03-01T07:18:29;21.58;;;11.25;;
70850;SDS011;58475;49.662;9.636;2023-03-01T07:20:54;24.25;;;11.80;;
70850;SDS011;58475;49.662;9.636;2023-03-01T07:23:20;23.25;;;11.32;;
70850;SDS011;58475;49.662;9.636;2023-03-01T07:25:51;32.10;;;11.63;;
70850;SDS011;58475;49.662;9.636;2023-03-01T07:28:18;28.98;;;11.68;;
70850;SDS011;58475;49.662;9.636;2023-03-01T07:30:43;20.27;;;10.82;;
70850;SDS011;58475;49.662;9.636;2023-03-01T07:33:09;22.95;;;10.93;;
70850;SDS011;58475;49.662;9.636;2023-03-01T07:35:35;24.35;;;11.90;;
70850;SDS011;58475;49.662;9.636;2023-03-01T07:38:00;23.13;;;11.07;;
70850;SDS011;58475;49.662;9.636;2023-03-01T07:40:26;26.92;;;11.82;;
70850;SDS011;58475;49.662;9.636;2023-03-01T07:42:55;23.23;;;11.23;;
70850;SDS011;58475;49.662;9.636;2023-03-01T07:45:21;28.27;;;11.75;;
70850;SDS011;58475;49.662;9.636;2023-03-01T07:47:46;22.08;;;11.95;;
70850;SDS011;58475;49.662;9.636;2023-03-01T07:50:12;23.88;;;12.02;;
70850;SDS011;58475;49.662;9.636;2023-03-01T07:52:38;26.20;;;11.93;;
70850;SDS011;58475;49.662;9.636;2023-03-01T07:55:04;24.25;;;13.02;;
70850;SDS011;58475;49.662;9.636;2023-03-01T07:57:29;27.15;;;13.93;;
70850;SDS011;58475;49.662;9.636;2023-03-01T07:59:55;26.35;;;13.70;;
70850;SDS011;58475;49.662;9.636;2023-03-01T08:02:20;26.73;;;14.13;;
70850;SDS011;58475;49.662;9.636;2023-03-01T08:04:46;26.23;;;13.13;;
70850;SDS011;58475;49.662;9.636;2023-03-01T08:07:11;24.02;;;12.88;;
70850;SDS011;58475;49.662;9.636;2023-03-01T08:09:37;24.20;;;12.50;;
70850;SDS011;58475;49.662;9.636;2023-03-01T08:12:03;27.50;;;12.95;;
70850;SDS011;58475;49.662;9.636;2023-03-01T08:14:29;22.33;;;12.32;;
70850;SDS011;58475;49.662;9.636;2023-03-01T08:16:56;24.38;;;12.88;;
70850;SDS011;58475;49.662;9.636;2023-03-01T08:19:22;25.15;;;12.98;;
70850;SDS011;58475;49.662;9.636;2023-03-01T08:21:48;28.10;;;13.68;;
70850;SDS011;58475;49.662;9.636;2023-03-01T08:24:14;25.95;;;12.85;;
70850;SDS011;58475;49.662;9.636;2023-03-01T08:26:39;26.58;;;13.43;;
70850;SDS011;58475;49.662;9.636;2023-03-01T08:29:04;30.48;;;13.35;;
70850;SDS011;58475;49.662;9.636;2023-03-01T08:34:13;25.92;;;12.10;;
70850;SDS011;58475;49.662;9.636;2023-03-01T08:36:42;26.70;;;12.40;;
70850;SDS011;58475;49.662;9.636;2023-03-01T08:39:09;26.60;;;13.00;;
70850;SDS011;58475;49.662;9.636;2023-03-01T08:41:37;24.17;;;12.48;;
70850;SDS011;58475;49.662;9.636;2023-03-01T08:44:03;32.13;;;12.93;;
70850;SDS011;58475;49.662;9.636;2023-03-01T08:46:29;28.00;;;12.60;;
70850;SDS011;58475;49.662;9.636;2023-03-01T08:48:57;24.02;;;12.63;;
70850;SDS011;58475;49.662;9.636;2023-03-01T08:51:22;26.30;;;12.13;;
70850;SDS011;58475;49.662;9.636;2023-03-01T08:53:48;28.35;;;13.02;;
70850;SDS011;58475;49.662;9.636;2023-03-01T08:56:15;32.28;;;13.85;;
70850;SDS011;58475;49.662;9.636;2023-03-01T08:58:43;29.17;;;12.63;;
70850;SDS011;58475;49.662;9.636;2023-03-01T09:01:11;25.20;;;12.75;;
70850;SDS011;58475;49.662;9.636;2023-03-01T09:03:38;33.30;;;12.88;;
70850;SDS011;58475;49.662;9.636;2023-03-01T09:06:04;30.73;;;13.18;;
70850;SDS011;58475;49.662;9.636;2023-03-01T09:08:34;35.40;;;13.18;;
70850;SDS011;58475;49.662;9.636;2023-03-01T09:11:04;27.00;;;13.07;;
70850;SDS011;58475;49.662;9.636;2023-03-01T09:13:31;31.83;;;13.85;;
70850;SDS011;58475;49.662;9.636;2023-03-01T09:15:57;30.10;;;12.38;;
70850;SDS011;58475;49.662;9.636;2023-03-01T09:18:23;26.52;;;12.35;;
70850;SDS011;58475;49.662;9.636;2023-03-01T09:20:48;24.63;;;11.32;;
70850;SDS011;58475;49.662;9.636;2023-03-01T09:23:14;28.45;;;12.65;;
70850;SDS011;58475;49.662;9.636;2023-03-01T09:25:39;31.92;;;12.70;;
70850;SDS011;58475;49.662;9.636;2023-03-01T09:28:05;28.08;;;12.93;;
70850;SDS011;58475;49.662;9.636;2023-03-01T09:30:30;27.55;;;12.10;;
70850;SDS011;58475;49.662;9.636;2023-03-01T09:32:56;25.73;;;12.18;;
70850;SDS011;58475;49.662;9.636;2023-03-01T09:35:22;24.27;;;12.00;;
70850;SDS011;58475;49.662;9.636;2023-03-01T09:37:48;27.70;;;12.82;;
70850;SDS011;58475;49.662;9.636;2023-03-01T09:40:24;25.05;;;12.55;;
70850;SDS011;58475;49.662;9.636;2023-03-01T09:43:07;25.48;;;12.75;;
70850;SDS011;58475;49.662;9.636;2023-03-01T09:45:41;25.45;;;12.07;;
70850;SDS011;58475;49.662;9.636;2023-03-01T09:48:12;24.95;;;11.40;;
70850;SDS011;58475;49.662;9.636;2023-03-01T09:50:42;26.58;;;12.73;;
70850;SDS011;58475;49.662;9.636;2023-03-01T09:53:31;27.55;;;11.52;;
70850;SDS011;58475;49.662;9.636;2023-03-01T09:58:52;21.95;;;11.43;;
70850;SDS011;58475;49.662;9.636;2023-03-01T10:06:31;28.50;;;13.65;;
70850;SDS011;58475;49.662;9.636;2023-03-01T10:08:58;26.15;;;13.55;;
70850;SDS011;58475;49.662;9.636;2023-03-01T10:11:31;25.40;;;12.52;;
70850;SDS011;58475;49.662;9.636;2023-03-01T10:19:37;29.85;;;13.70;;
70850;SDS011;58475;49.662;9.636;2023-03-01T10:22:19;23.08;;;12.77;;
70850;SDS011;58475;49.662;9.636;2023-03-01T10:24:50;27.45;;;13.55;;
70850;SDS011;58475;49.662;9.636;2023-03-01T10:29:56;25.58;;;13.43;;
70850;SDS011;58475;49.662;9.636;2023-03-01T10:32:26;28.85;;;14.50;;
70850;SDS011;58475;49.662;9.636;2023-03-01T10:34:51;27.50;;;13.95;;
70850;SDS011;58475;49.662;9.636;2023-03-01T10:37:18;26.98;;;13.18;;
70850;SDS011;58475;49.662;9.636;2023-03-01T10:42:41;25.88;;;13.02;;
70850;SDS011;58475;49.662;9.636;2023-03-01T10:50:33;27.65;;;13.52;;
70850;SDS011;58475;49.662;9.636;2023-03-01T10:53:03;25.17;;;13.45;;
70850;SDS011;58475;49.662;9.636;2023-03-01T10:55:36;26.38;;;12.80;;
70850;SDS011;58475;49.662;9.636;2023-03-01T10:58:17;27.23;;;13.93;;
70850;SDS011;58475;49.662;9.636;2023-03-01T11:00:56;31.23;;;14.40;;
70850;SDS011;58475;49.662;9.636;2023-03-01T11:03:36;28.80;;;13.50;;
70850;SDS011;58475;49.662;9.636;2023-03-01T11:08:45;28.20;;;14.38;;
70850;SDS011;58475;49.662;9.636;2023-03-01T11:13:39;27.92;;;14.50;;
70850;SDS011;58475;49.662;9.636;2023-03-01T11:16:24;30.58;;;14.98;;
70850;SDS011;58475;49.662;9.636;2023-03-01T11:18:56;26.92;;;14.18;;
70850;SDS011;58475;49.662;9.636;2023-03-01T11:21:29;26.23;;;14.52;;
70850;SDS011;58475;49.662;9.636;2023-03-01T11:23:59;26.80;;;13.45;;
70850;SDS011;58475;49.662;9.636;2023-03-01T11:26:27;29.45;;;14.55;;
70850;SDS011;58475;49.662;9.636;2023-03-01T11:28:55;27.63;;;14.25;;
70850;SDS011;58475;49.662;9.636;2023-03-01T11:31:27;27.20;;;13.90;;
70850;SDS011;58475;49.662;9.636;2023-03-01T11:34:09;27.73;;;13.77;;
70850;SDS011;58475;49.662;9.636;2023-03-01T11:36:51;27.30;;;13.77;;
70850;SDS011;58475;49.662;9.636;2023-03-01T11:41:48;25.60;;;13.55;;
70850;SDS011;58475;49.662;9.636;2023-03-01T11:44:27;28.25;;;13.82;;
70850;SDS011;58475;49.662;9.636;2023-03-01T12:01:03;27.58;;;13.95;;
70850;SDS011;58475;49.662;9.636;2023-03-01T12:04:02;33.63;;;14.38;;
70850;SDS011;58475;49.662;9.636;2023-03-01T12:20:20;26.10;;;14.50;;
70850;SDS011;58475;49.662;9.636;2023-03-01T12:25:39;25.75;;;13.63;;
70850;SDS011;58475;49.662;9.636;2023-03-01T12:31:25;26.75;;;14.27;;
70850;SDS011;58475;49.662;9.636;2023-03-01T12:34:01;26.95;;;14.40;;
70850;SDS011;58475;49.662;9.636;2023-03-01T12:44:54;27.88;;;14.05;;
70850;SDS011;58475;49.662;9.636;2023-03-01T12:53:04;29.45;;;14.32;;
70850;SDS011;58475;49.662;9.636;2023-03-01T12:55:31;28.70;;;14.57;;
70850;SDS011;58475;49.662;9.636;2023-03-01T13:00:51;29.48;;;15.10;;
70850;SDS011;58475;49.662;9.636;2023-03-01T13:08:56;28.30;;;14.75;;
70850;SDS011;58475;49.662;9.636;2023-03-01T13:11:29;29.55;;;14.73;;
70850;SDS011;58475;49.662;9.636;2023-03-01T13:16:45;27.10;;;14.30;;
70850;SDS011;58475;49.662;9.636;2023-03-01T13:19:20;27.60;;;14.80;;
70850;SDS011;58475;49.662;9.636;2023-03-01T13:21:48;26.85;;;14.35;;
70850;SDS011;58475;49.662;9.636;2023-03-01T13:30:12;29.83;;;14.93;;
70850;SDS011;58475;49.662;9.636;2023-03-01T13:37:42;29.23;;;14.65;;
70850;SDS011;58475;49.662;9.636;2023-03-01T13:42:44;28.95;;;15.13;;
70850;SDS011;58475;49.662;9.636;2023-03-01T13:45:18;28.43;;;16.03;;
70850;SDS011;58475;49.662;9.636;2023-03-01T13:51:01;33.15;;;16.15;;
70850;SDS011;58475;49.662;9.636;2023-03-01T13:53:30;31.20;;;15.20;;
70850;SDS011;58475;49.662;9.636;2023-03-01T13:56:03;31.70;;;15.07;;
70850;SDS011;58475;49.662;9.636;2023-03-01T13:58:51;29.55;;;15.18;;
70850;SDS011;58475;49.662;9.636;2023-03-01T14:01:22;28.27;;;14.75;;
70850;SDS011;58475;49.662;9.636;2023-03-01T14:03:58;28.30;;;15.40;;
70850;SDS011;58475;49.662;9.636;2023-03-01T14:06:31;29.58;;;14.73;;
70850;SDS011;58475;49.662;9.636;2023-03-01T14:17:32;31.25;;;14.93;;
70850;SDS011;58475;49.662;9.636;2023-03-01T14:20:22;42.38;;;14.88;;
70850;SDS011;58475;49.662;9.636;2023-03-01T14:22:50;49.47;;;15.35;;
70850;SDS011;58475;49.662;9.636;2023-03-01T14:25:32;47.58;;;15.60;;
70850;SDS011;58475;49.662;9.636;2023-03-01T14:28:16;44.73;;;15.67;;
70850;SDS011;58475;49.662;9.636;2023-03-01T14:30:45;29.92;;;14.10;;
70850;SDS011;58475;49.662;9.636;2023-03-01T14:33:19;36.60;;;14.38;;
70850;SDS011;58475;49.662;9.636;2023-03-01T14:35:59;31.02;;;15.13;;
70850;SDS011;58475;49.662;9.636;2023-03-01T14:40:57;29.10;;;15.57;;
70850;SDS011;58475;49.662;9.636;2023-03-01T14:43:26;26.95;;;14.07;;
70850;SDS011;58475;49.662;9.636;2023-03-01T14:45:54;24.58;;;13.32;;
70850;SDS011;58475;49.662;9.636;2023-03-01T14:48:19;27.83;;;13.85;;
70850;SDS011;58475;49.662;9.636;2023-03-01T14:50:46;26.45;;;13.77;;
70850;SDS011;58475;49.662;9.636;2023-03-01T14:53:22;28.58;;;13.80;;
70850;SDS011;58475;49.662;9.636;2023-03-01T14:55:51;29.33;;;14.30;;
70850;SDS011;58475;49.662;9.636;2023-03-01T14:58:20;26.08;;;13.98;;
70850;SDS011;58475;49.662;9.636;2023-03-01T15:05:59;28.70;;;14.77;;
70850;SDS011;58475;49.662;9.636;2023-03-01T15:08:27;27.10;;;14.52;;
70850;SDS011;58475;49.662;9.636;2023-03-01T15:13:39;24.85;;;13.43;;
70850;SDS011;58475;49.662;9.636;2023-03-01T15:16:06;29.00;;;14.10;;
70850;SDS011;58475;49.662;9.636;2023-03-01T15:18:32;24.55;;;13.55;;
70850;SDS011;58475;49.662;9.636;2023-03-01T15:21:09;26.17;;;14.38;;
70850;SDS011;58475;49.662;9.636;2023-03-01T15:26:06;28.90;;;13.05;;
70850;SDS011;58475;49.662;9.636;2023-03-01T15:28:48;26.40;;;12.82;;
70850;SDS011;58475;49.662;9.636;2023-03-01T15:31:20;23.60;;;13.48;;
70850;SDS011;58475;49.662;9.636;2023-03-01T15:33:48;26.00;;;14.15;;
70850;SDS011;58475;49.662;9.636;2023-03-01T15:38:55;24.70;;;13.27;;
70850;SDS011;58475;49.662;9.636;2023-03-01T15:41:27;26.55;;;13.00;;
70850;SDS011;58475;49.662;9.636;2023-03-01T15:43:53;24.38;;;13.02;;
70850;SDS011;58475;49.662;9.636;2023-03-01T15:46:22;26.23;;;12.00;;
70850;SDS011;58475;49.662;9.636;2023-03-01T15:48:51;26.83;;;13.73;;
70850;SDS011;58475;49.662;9.636;2023-03-01T15:51:27;24.52;;;13.52;;
70850;SDS011;58475;49.662;9.636;2023-03-01T15:54:06;24.95;;;14.80;;
70850;SDS011;58475;49.662;9.636;2023-03-01T15:56:50;27.50;;;14.38;;
70850;SDS011;58475;49.662;9.636;2023-03-01T15:59:16;27.08;;;13.65;;
70850;SDS011;58475;49.662;9.636;2023-03-01T16:01:43;27.65;;;14.27;;
70850;SDS011;58475;49.662;9.636;2023-03-01T16:04:12;28.45;;;15.20;;
70850;SDS011;58475;49.662;9.636;2023-03-01T16:06:45;30.80;;;15.38;;
70850;SDS011;58475;49.662;9.636;2023-03-01T16:09:23;26.60;;;15.55;;
70850;SDS011;58475;49.662;9.636;2023-03-01T16:11:50;28.33;;;15.73;;
70850;SDS011;58475;49.662;9.636;2023-03-01T16:14:17;29.83;;;15.63;;
70850;SDS011;58475;49.662;9.636;2023-03-01T16:16:43;29.30;;;15.35;;
70850;SDS011;58475;49.662;9.636;2023-03-01T16:19:09;27.48;;;14.98;;
70850;SDS011;58475;49.662;9.636;2023-03-01T16:21:35;29.05;;;15.70;;
70850;SDS011;58475;49.662;9.636;2023-03-01T16:24:01;31.75;;;16.58;;
70850;SDS011;58475;49.662;9.636;2023-03-01T16:26:26;31.00;;;16.85;;
70850;SDS011;58475;49.662;9.636;2023-03-01T16:28:54;32.55;;;15.25;;
70850;SDS011;58475;49.662;9.636;2023-03-01T16:31:21;34.22;;;16.38;;
70850;SDS011;58475;49.662;9.636;2023-03-01T16:33:46;30.80;;;16.70;;
70850;SDS011;58475;49.662;9.636;2023-03-01T16:36:15;30.40;;;15.20;;
70850;SDS011;58475;49.662;9.636;2023-03-01T16:38:42;33.25;;;16.38;;
70850;SDS011;58475;49.662;9.636;2023-03-01T16:41:14;35.25;;;15.98;;
70850;SDS011;58475;49.662;9.636;2023-03-01T16:43:41;40.33;;;16.77;;
70850;SDS011;58475;49.662;9.636;2023-03-01T16:46:11;39.25;;;15.80;;
70850;SDS011;58475;49.662;9.636;2023-03-01T16:48:37;36.08;;;15.75;;
70850;SDS011;58475;49.662;9.636;2023-03-01T16:51:04;38.65;;;16.88;;
70850;SDS011;58475;49.662;9.636;2023-03-01T16:53:29;35.45;;;16.48;;